Time;durP1;ratioP1;P1;durP2;ratioP2;P2;SDS_P1;SDS_P2;PMS_P1;PMS_P2;Temp;Humidity;BMP_temperature;BMP_pressure;BME280_temperature;BME280_humidity;BME280_pressure;Samples;Min_cycle;Max_cycle;Signal;HPM_P1;HPM_P2
2022/05/19 00:00:22;;;;;;;5.97;3.70;;;;;;;10.24;82.19;101107.25;6216785;23;20012;-78
2022/05/19 00:02:48;;;;;;;4.63;3.45;;;;;;;10.34;81.21;101121.44;6216460;23;20088;-79
2022/05/19 00:05:14;;;;;;;5.03;3.80;;;;;;;10.19;82.78;101120.78;6243425;23;20020;-78
2022/05/19 00:07:40;;;;;;;5.32;3.80;;;;;;;10.13;82.29;101122.38;6243551;23;20012;-79
2022/05/19 00:10:06;;;;;;;5.85;3.55;;;;;;;10.15;81.31;101120.78;6244018;23;20008;-79
2022/05/19 00:12:31;;;;;;;5.47;3.60;;;;;;;10.17;81.52;101114.84;6243903;23;20028;-79
2022/05/19 00:15:00;;;;;;;6.43;3.58;;;;;;;10.19;80.98;101121.53;6217466;23;20324;-79
2022/05/19 00:17:25;;;;;;;5.75;3.60;;;;;;;10.10;80.59;101112.91;6191986;23;20102;-79
2022/05/19 00:19:51;;;;;;;4.65;3.58;;;;;;;10.06;80.79;101123.22;6217166;23;20072;-79
2022/05/19 00:22:18;;;;;;;5.40;3.50;;;;;;;9.87;83.08;101109.09;6243323;23;20061;-79
2022/05/19 00:24:44;;;;;;;5.93;3.47;;;;;;;9.93;82.38;101119.34;6243902;23;20430;-79
2022/05/19 00:27:09;;;;;;;5.95;3.53;;;;;;;9.85;83.02;101123.38;6191668;23;20008;-79
2022/05/19 00:29:36;;;;;;;5.07;3.40;;;;;;;9.74;84.19;101115.13;6243970;23;20012;-78
2022/05/19 00:32:02;;;;;;;4.55;3.42;;;;;;;9.72;85.19;101125.03;6243606;23;20023;-80
2022/05/19 00:34:28;;;;;;;6.20;4.00;;;;;;;9.71;85.32;101123.44;6216831;23;20015;-80
2022/05/19 00:36:58;;;;;;;4.53;3.33;;;;;;;9.66;85.14;101123.88;6243418;23;20012;-80
2022/05/19 00:39:23;;;;;;;4.03;3.15;;;;;;;9.55;85.61;101117.59;6216575;23;20035;-81
2022/05/19 00:42:43;;;;;;;5.40;3.45;;;;;;;9.54;85.61;101124.34;6243274;23;20026;-80
2022/05/19 00:44:34;;;;;;;4.30;3.20;;;;;;;9.57;85.04;101123.53;6243192;23;20043;-80
2022/05/19 00:47:01;;;;;;;4.13;3.63;;;;;;;9.49;85.78;101128.31;6216850;23;20368;-80
2022/05/19 00:49:32;;;;;;;5.53;3.70;;;;;;;9.42;86.17;101117.28;6243565;23;20016;-80
2022/05/19 00:52:06;;;;;;;5.10;3.67;;;;;;;9.45;86.06;101121.22;6243508;23;20012;-79
2022/05/19 00:54:51;;;;;;;;;;;;;;;9.44;86.27;101111.31;6243988;23;20131;-80
2022/05/19 00:57:31;;;;;;;5.13;3.55;;;;;;;9.33;86.63;101120.47;6215911;23;19919;-79
2022/05/19 01:00:00;;;;;;;4.55;3.45;;;;;;;9.28;86.03;101120.88;6217073;23;20023;-80
2022/05/19 01:02:33;;;;;;;4.82;3.42;;;;;;;9.08;87.74;101122.56;6213680;22;20028;-79
2022/05/19 01:05:14;;;;;;;6.40;3.70;;;;;;;9.04;89.26;101124.53;6240811;23;20400;-79
2022/05/19 01:07:47;;;;;;;4.90;3.35;;;;;;;9.05;88.92;101125.34;6243060;22;20389;-79
2022/05/19 01:10:14;;;;;;;5.30;3.28;;;;;;;9.06;87.74;101122.16;6242202;23;20065;-79
2022/05/19 01:12:40;;;;;;;6.05;3.85;;;;;;;9.13;87.68;101121.34;6242409;22;20025;-79
2022/05/19 01:15:07;;;;;;;5.72;3.65;;;;;;;9.07;87.02;101114.63;6242210;23;20086;-79
2022/05/19 01:17:34;;;;;;;5.18;3.50;;;;;;;9.05;87.44;101120.59;6242162;23;20452;-79
2022/05/19 01:20:04;;;;;;;6.95;3.50;;;;;;;9.00;87.87;101117.44;6242496;23;20016;-79
2022/05/19 01:22:45;;;;;;;4.68;3.90;;;;;;;8.85;88.37;101122.22;6242126;23;20497;-79
2022/05/19 01:25:29;;;;;;;5.47;3.33;;;;;;;8.86;88.41;101123.78;6241663;23;20624;-79
2022/05/19 01:27:55;;;;;;;5.78;3.67;;;;;;;8.83;87.16;101122.63;6243281;22;20012;-79
2022/05/19 01:30:20;;;;;;;4.15;3.10;;;;;;;8.86;85.85;101123.78;6241936;23;20016;-79
2022/05/19 01:32:46;;;;;;;5.43;3.50;;;;;;;8.89;85.23;101126.56;6242534;22;20114;-79
2022/05/19 01:35:13;;;;;;;6.50;3.50;;;;;;;8.86;84.46;101118.25;6242571;22;20058;-79
2022/05/19 01:37:38;;;;;;;5.00;3.22;;;;;;;8.93;84.05;101126.56;6242179;23;20016;-79
2022/05/19 01:40:36;;;;;;;5.70;3.47;;;;;;;8.77;86.39;101120.66;6242280;23;20392;-83
2022/05/19 01:43:13;;;;;;;4.72;3.50;;;;;;;8.68;86.60;101112.78;6234900;23;20023;-83
2022/05/19 01:46:15;;;;;;;4.45;3.28;;;;;;;8.47;87.67;101107.28;6244250;22;20035;-83
2022/05/19 01:48:58;;;;;;;5.00;3.55;;;;;;;8.37;88.02;101119.13;6240680;23;20012;-83
2022/05/19 01:51:46;;;;;;;5.43;3.70;;;;;;;8.32;87.61;101095.44;6242730;23;20142;-83
2022/05/19 01:54:33;;;;;;;5.15;3.38;;;;;;;8.30;87.22;101117.16;6242404;23;20499;-83
2022/05/19 01:57:24;;;;;;;4.03;3.15;;;;;;;8.29;86.65;101115.56;6218288;23;20012;-83
2022/05/19 02:00:09;;;;;;;4.43;3.55;;;;;;;8.26;86.37;101123.84;6243928;22;20008;-83
2022/05/19 02:03:06;;;;;;;4.82;3.50;;;;;;;8.24;85.99;101121.47;6255691;22;20020;-83
2022/05/19 02:05:47;;;;;;;5.07;3.50;;;;;;;8.25;86.40;101123.03;6230813;22;20012;-83
2022/05/19 02:08:29;;;;;;;6.25;3.40;;;;;;;8.26;85.87;101121.84;6274114;22;20500;-83
2022/05/19 02:10:58;;;;;;;5.13;3.17;;;;;;;8.15;88.08;101112.78;6247141;22;20049;-83
2022/05/19 02:13:25;;;;;;;5.20;3.45;;;;;;;8.07;88.89;101105.69;6246542;22;20015;-83
2022/05/19 02:15:52;;;;;;;4.90;3.67;;;;;;;7.96;88.99;101105.69;6246886;22;20543;-83
2022/05/19 02:18:20;;;;;;;4.07;3.30;;;;;;;7.93;89.37;101100.91;6246198;22;20012;-83
2022/05/19 02:20:47;;;;;;;5.45;3.80;;;;;;;7.91;89.24;101121.84;6246974;22;20012;-83
2022/05/19 02:23:14;;;;;;;7.15;3.70;;;;;;;7.82;90.26;101119.47;6246495;22;20031;-83
2022/05/19 02:25:42;;;;;;;5.97;3.70;;;;;;;7.68;91.32;101113.13;6273126;22;20061;-83
2022/05/19 02:28:12;;;;;;;4.78;3.50;;;;;;;7.70;91.34;101130.09;6246063;22;20015;-82
2022/05/19 02:30:39;;;;;;;5.88;3.35;;;;;;;7.81;90.21;101126.16;6273446;22;20018;-83
2022/05/19 02:33:05;;;;;;;5.03;3.50;;;;;;;7.76;89.92;101131.28;6273612;22;20460;-83
2022/05/19 02:35:32;;;;;;;4.35;3.42;;;;;;;7.74;89.24;101103.25;6245613;22;20023;-83
2022/05/19 02:37:59;;;;;;;4.90;3.75;;;;;;;7.78;89.40;101115.09;6246843;22;20042;-79
2022/05/19 02:40:27;;;;;;;4.57;3.10;;;;;;;7.81;88.77;101119.84;6273395;22;20329;-79
2022/05/19 02:42:52;;;;;;;6.93;3.70;;;;;;;7.79;88.77;101124.97;6273439;22;20035;-79
2022/05/19 02:45:19;;;;;;;4.93;3.42;;;;;;;7.79;89.50;101130.50;6272773;22;20350;-79
2022/05/19 02:47:45;;;;;;;6.60;3.65;;;;;;;7.80;88.69;101115.53;6273152;22;20000;-79
2022/05/19 02:50:13;;;;;;;5.95;3.47;;;;;;;7.80;88.75;101123.81;6245955;22;20074;-79
2022/05/19 02:52:39;;;;;;;8.18;3.40;;;;;;;7.75;88.84;101133.25;6273095;22;20016;-80
2022/05/19 02:55:05;;;;;;;4.57;3.15;;;;;;;7.67;88.14;101114.31;6273530;22;20008;-79
2022/05/19 02:57:30;;;;;;;5.18;3.10;;;;;;;7.71;87.58;101132.47;6273091;22;20037;-79
2022/05/19 02:59:56;;;;;;;4.50;3.17;;;;;;;7.66;87.31;101129.28;6272839;22;20035;-79
2022/05/19 03:02:22;;;;;;;4.50;3.40;;;;;;;7.66;87.64;101138.34;6273190;22;20111;-79
2022/05/19 03:04:47;;;;;;;5.72;4.07;;;;;;;7.58;89.14;101135.97;6273708;22;20011;-79
2022/05/19 03:07:13;;;;;;;6.00;3.50;;;;;;;7.60;88.73;101125.34;6245194;22;20087;-79
2022/05/19 03:09:40;;;;;;;4.85;4.10;;;;;;;7.58;88.97;101122.16;6273038;22;20012;-79
2022/05/19 03:12:08;;;;;;;6.13;4.10;;;;;;;7.57;90.22;101126.09;6272794;22;20079;-79
2022/05/19 03:14:33;;;;;;;7.25;3.90;;;;;;;7.45;90.45;101139.09;6246228;22;20004;-79
2022/05/19 03:16:59;;;;;;;5.90;3.40;;;;;;;7.47;89.37;101139.50;6273657;22;20129;-79
2022/05/19 03:19:24;;;;;;;5.65;3.55;;;;;;;7.37;89.83;101139.44;6273020;22;20012;-79
2022/05/19 03:21:50;;;;;;;3.90;3.10;;;;;;;7.33;89.35;101131.16;6247124;22;20008;-79
2022/05/19 03:24:16;;;;;;;5.20;3.20;;;;;;;7.12;90.74;101122.00;6273168;22;20049;-79
2022/05/19 03:26:41;;;;;;;5.35;3.50;;;;;;;7.21;90.18;101139.78;6273446;22;20038;-79
2022/05/19 03:29:07;;;;;;;6.35;3.30;;;;;;;7.19;90.86;101133.88;6272592;22;20042;-79
2022/05/19 03:31:34;;;;;;;4.85;3.17;;;;;;;7.19;90.64;101139.38;6274008;22;20377;-79
2022/05/19 03:33:59;;;;;;;4.80;3.22;;;;;;;7.10;90.26;101135.38;6274944;22;20003;-79
2022/05/19 03:36:25;;;;;;;5.18;3.20;;;;;;;7.11;90.17;101142.50;6275276;22;20012;-79
2022/05/19 03:38:50;;;;;;;3.90;3.13;;;;;;;7.18;89.09;101140.56;6275140;22;20012;-79
2022/05/19 03:41:16;;;;;;;4.88;3.50;;;;;;;7.19;88.13;101149.63;6274326;22;20083;-80
2022/05/19 03:43:41;;;;;;;4.43;3.20;;;;;;;7.14;88.44;101131.47;6274584;22;20384;-80
2022/05/19 03:46:07;;;;;;;5.22;3.30;;;;;;;7.21;88.45;101139.78;6274404;22;20012;-79
2022/05/19 03:48:34;;;;;;;5.40;3.15;;;;;;;7.26;88.07;101133.09;6274958;22;20015;-79
2022/05/19 03:51:02;;;;;;;5.85;3.60;;;;;;;7.29;91.38;101137.84;6274495;22;19999;-80
2022/05/19 03:53:28;;;;;;;8.13;3.97;;;;;;;7.19;93.95;101139.38;6274982;22;20008;-80
2022/05/19 03:55:54;;;;;;;10.13;4.43;;;;;;;7.28;95.44;101142.56;6274764;22;20008;-79
2022/05/19 03:58:20;;;;;;;8.20;3.88;;;;;;;7.33;92.94;101150.47;6273502;22;19999;-79
2022/05/19 04:00:46;;;;;;;5.78;3.53;;;;;;;7.33;92.45;101138.63;6273077;22;20092;-79
2022/05/19 04:03:11;;;;;;;8.88;4.40;;;;;;;7.43;91.78;101143.41;6245782;22;20016;-79
2022/05/19 04:05:37;;;;;;;7.20;3.97;;;;;;;7.45;91.65;101141.84;6275372;22;20492;-79
2022/05/19 04:08:03;;;;;;;6.68;4.28;;;;;;;7.63;91.01;101152.16;6273930;22;20065;-79
2022/05/19 04:10:29;;;;;;;7.82;4.05;;;;;;;7.73;90.66;101151.38;6247803;22;20015;-83
2022/05/19 04:12:56;;;;;;;5.65;4.05;;;;;;;7.76;90.12;101150.63;6274873;22;20007;-79
2022/05/19 04:15:21;;;;;;;5.40;3.92;;;;;;;7.87;90.04;101156.97;6247556;22;20010;-79
2022/05/19 04:17:47;;;;;;;5.68;3.72;;;;;;;7.87;90.52;101151.44;6274486;22;20043;-79
2022/05/19 04:20:13;;;;;;;7.90;3.90;;;;;;;7.95;90.53;101158.56;6273997;22;20008;-79
2022/05/19 04:22:38;;;;;;;6.68;4.32;;;;;;;8.02;90.41;101150.28;6221383;22;20046;-80
2022/05/19 04:25:08;;;;;;;5.45;4.00;;;;;;;8.09;90.61;101143.97;6274041;22;20022;-79
2022/05/19 04:27:34;;;;;;;7.13;3.88;;;;;;;8.23;90.45;101157.78;6221938;22;20357;-79
2022/05/19 04:30:00;;;;;;;4.95;3.80;;;;;;;8.32;89.94;101161.78;6274806;22;20000;-79
2022/05/19 04:32:26;;;;;;;5.43;3.65;;;;;;;8.41;89.96;101158.63;6273916;22;20026;-79
2022/05/19 04:34:53;;;;;;;5.75;3.47;;;;;;;8.45;89.43;101158.63;6274430;22;20012;-79
2022/05/19 04:37:18;;;;;;;7.43;4.00;;;;;;;8.43;89.64;101151.50;6247199;22;20073;-80
2022/05/19 04:39:44;;;;;;;5.63;3.78;;;;;;;8.55;89.43;101141.22;6246260;22;20058;-79
2022/05/19 04:42:11;;;;;;;7.55;3.95;;;;;;;8.65;89.07;101151.50;6267913;22;20425;-80
2022/05/19 04:44:37;;;;;;;6.50;3.97;;;;;;;8.74;88.81;101149.91;6270522;22;20039;-79
2022/05/19 04:47:03;;;;;;;7.65;5.55;;;;;;;8.85;88.12;101155.44;6271403;22;20380;-80
2022/05/19 04:49:29;;;;;;;6.55;3.78;;;;;;;8.98;87.17;101159.34;6271024;22;20065;-79
2022/05/19 04:51:54;;;;;;;6.13;3.88;;;;;;;9.02;85.74;101151.81;6269814;22;20061;-79
2022/05/19 04:54:20;;;;;;;6.82;3.97;;;;;;;9.12;85.70;101156.53;6270646;22;20168;-81
2022/05/19 04:56:46;;;;;;;7.15;4.07;;;;;;;9.27;85.60;101165.59;6271940;22;20323;-80
2022/05/19 04:59:14;;;;;;;7.00;3.72;;;;;;;9.36;84.80;101161.22;6270882;22;20018;-80
2022/05/19 05:01:45;;;;;;;8.35;4.13;;;;;;;9.52;84.09;101171.03;6272124;22;20018;-80
2022/05/19 05:04:12;;;;;;;6.93;4.20;;;;;;;9.61;83.54;101158.34;6210367;23;20019;-80
2022/05/19 05:06:37;;;;;;;7.93;3.97;;;;;;;9.73;83.22;101168.16;6210610;23;20448;-81
2022/05/19 05:09:03;;;;;;;6.50;4.20;;;;;;;9.78;82.74;101163.00;6209539;23;20051;-81
2022/05/19 05:11:29;;;;;;;8.23;3.70;;;;;;;9.91;82.27;101166.06;6210319;23;20013;-81
2022/05/19 05:13:55;;;;;;;5.72;3.60;;;;;;;9.99;82.63;101156.50;6208027;23;20391;-81
2022/05/19 05:16:20;;;;;;;5.93;3.75;;;;;;;10.18;83.20;101169.91;6210563;23;20419;-81
2022/05/19 05:18:46;;;;;;;6.05;3.60;;;;;;;10.36;83.09;101164.19;6210524;23;20021;-81
2022/05/19 05:21:13;;;;;;;6.20;3.90;;;;;;;10.57;81.68;101168.78;6211189;23;20135;-80
2022/05/19 05:23:39;;;;;;;9.77;4.50;;;;;;;10.75;80.55;101169.44;6213441;23;20016;-81
2022/05/19 05:26:06;;;;;;;5.97;4.13;;;;;;;10.95;78.88;101172.41;6185981;23;20104;-80
2022/05/19 05:28:32;;;;;;;6.93;3.97;;;;;;;11.22;77.73;101179.63;6213486;23;20066;-80
2022/05/19 05:30:58;;;;;;;6.95;3.90;;;;;;;11.40;74.87;101164.78;6213889;23;20013;-81
2022/05/19 05:33:23;;;;;;;11.07;4.15;;;;;;;11.71;74.60;101169.13;6210926;23;20015;-81
2022/05/19 05:35:49;;;;;;;9.10;4.38;;;;;;;11.92;72.91;101173.63;6213320;23;20008;-81
2022/05/19 05:38:14;;;;;;;4.88;3.47;;;;;;;12.10;71.90;101176.94;6212695;23;20009;-81
2022/05/19 05:40:40;;;;;;;6.03;3.63;;;;;;;12.36;71.69;101170.59;6213260;23;20018;-81
2022/05/19 05:43:13;;;;;;;6.38;3.88;;;;;;;12.60;69.96;101176.94;6211043;23;20450;-80
2022/05/19 05:45:40;;;;;;;6.95;3.70;;;;;;;12.92;68.65;101171.59;6212086;23;20015;-81
2022/05/19 05:48:06;;;;;;;6.47;3.35;;;;;;;13.24;67.49;101175.81;6212662;23;20055;-81
2022/05/19 05:50:32;;;;;;;7.28;3.70;;;;;;;13.52;66.04;101178.03;6211463;23;20081;-81
2022/05/19 05:52:58;;;;;;;6.60;3.42;;;;;;;13.78;65.56;101174.28;6209998;23;20040;-81
2022/05/19 05:55:27;;;;;;;7.22;3.53;;;;;;;14.03;62.90;101177.28;6211372;23;20054;-81
2022/05/19 05:57:53;;;;;;;5.70;3.60;;;;;;;14.29;61.96;101181.09;6209284;23;20503;-81
2022/05/19 06:00:19;;;;;;;5.90;3.42;;;;;;;14.31;59.35;101172.28;6186275;23;20035;-81
2022/05/19 06:02:45;;;;;;;5.10;3.38;;;;;;;14.33;59.64;101169.84;6236942;22;20433;-81
2022/05/19 06:05:12;;;;;;;5.18;3.38;;;;;;;14.40;60.35;101175.28;6272237;22;20012;-83
2022/05/19 06:07:38;;;;;;;5.50;3.30;;;;;;;14.65;60.51;101169.88;6272016;22;20031;-83
2022/05/19 06:10:05;;;;;;;5.82;3.10;;;;;;;14.77;59.74;101169.16;6272661;22;20315;-84
2022/05/19 06:12:30;;;;;;;10.07;3.90;;;;;;;15.05;58.31;101176.00;6273518;22;20031;-84
2022/05/19 06:14:56;;;;;;;7.80;3.50;;;;;;;15.30;58.45;101167.72;6271798;22;20014;-83
2022/05/19 06:17:25;;;;;;;7.22;3.42;;;;;;;15.50;57.16;101169.59;6271337;22;20047;-83
2022/05/19 06:19:51;;;;;;;5.43;3.00;;;;;;;15.87;57.30;101174.47;6246741;22;20522;-84
2022/05/19 06:22:18;;;;;;;8.48;3.40;;;;;;;16.20;56.24;101175.06;6274010;22;20083;-83
2022/05/19 06:24:44;;;;;;;7.78;3.78;;;;;;;16.31;55.35;101184.69;6273893;22;20334;-83
2022/05/19 06:27:10;;;;;;;6.75;3.38;;;;;;;16.27;52.72;101174.81;6274263;22;19999;-83
2022/05/19 06:29:35;;;;;;;3.22;2.75;;;;;;;16.27;52.57;101180.41;6247196;22;20022;-83
2022/05/19 06:32:01;;;;;;;6.07;3.13;;;;;;;16.21;53.79;101182.22;6274143;22;20429;-83
2022/05/19 06:34:26;;;;;;;5.55;2.60;;;;;;;16.38;52.15;101166.84;6273701;22;20031;-83
2022/05/19 06:36:52;;;;;;;6.85;3.10;;;;;;;16.55;53.32;101173.91;6274374;22;20480;-83
2022/05/19 06:39:19;;;;;;;9.10;2.92;;;;;;;16.73;52.42;101168.53;6273619;22;20065;-83
2022/05/19 06:42:00;;;;;;;4.57;2.97;;;;;;;17.04;51.04;101170.66;6274204;22;20437;-83
2022/05/19 06:44:34;;;;;;;6.68;2.65;;;;;;;17.29;49.14;101170.56;6273799;22;20031;-83
2022/05/19 06:47:00;;;;;;;7.10;2.67;;;;;;;17.69;48.28;101179.91;6247241;22;20016;-83
2022/05/19 06:49:27;;;;;;;5.32;2.50;;;;;;;17.88;47.22;101165.94;6273770;22;20007;-83
2022/05/19 06:51:52;;;;;;;4.18;2.78;;;;;;;17.86;46.42;101169.22;6274004;22;20069;-83
2022/05/19 06:54:19;;;;;;;6.47;2.60;;;;;;;18.04;46.79;101179.75;6273659;22;20086;-83
2022/05/19 06:56:45;;;;;;;5.07;2.40;;;;;;;18.08;46.44;101174.78;6247198;22;20404;-83
2022/05/19 06:59:11;;;;;;;6.78;2.33;;;;;;;18.51;45.85;101185.09;6246164;22;20019;-84
2022/05/19 07:01:37;;;;;;;5.07;2.60;;;;;;;18.76;44.19;101178.47;6273843;22;20370;-83
2022/05/19 07:04:03;;;;;;;6.68;2.40;;;;;;;18.76;43.93;101184.88;6221415;22;20037;-83
2022/05/19 07:06:28;;;;;;;6.85;2.40;;;;;;;18.75;44.44;101196.56;6274767;22;20012;-83
2022/05/19 07:08:54;;;;;;;4.63;2.28;;;;;;;18.94;44.44;101172.84;6275965;22;20456;-83
2022/05/19 07:11:26;;;;;;;5.40;2.15;;;;;;;18.98;43.92;101179.88;6275922;22;20084;-83
2022/05/19 07:13:57;;;;;;;5.43;2.60;;;;;;;19.00;44.13;101182.25;6275988;22;20007;-83
2022/05/19 07:16:23;;;;;;;5.30;2.70;;;;;;;18.89;42.99;101187.53;6249105;22;20007;-83
2022/05/19 07:18:49;;;;;;;4.88;2.08;;;;;;;18.94;44.15;101189.72;6248922;22;20000;-84
2022/05/19 07:21:18;;;;;;;5.03;2.35;;;;;;;19.23;42.94;101187.25;6275915;22;20039;-84
2022/05/19 07:23:46;;;;;;;6.97;2.30;;;;;;;19.38;40.18;101185.34;6276370;22;20000;-84
2022/05/19 07:26:11;;;;;;;4.70;2.05;;;;;;;19.53;40.20;101163.78;6248999;22;20020;-84
2022/05/19 07:28:37;;;;;;;6.53;2.42;;;;;;;19.58;40.54;101182.06;6249186;22;20515;-84
2022/05/19 07:31:03;;;;;;;4.22;1.80;;;;;;;19.87;39.00;101187.16;6276280;22;20018;-84
2022/05/19 07:33:28;;;;;;;4.35;1.88;;;;;;;19.87;39.11;101175.91;6248747;22;20453;-83
2022/05/19 07:35:55;;;;;;;5.50;2.45;;;;;;;19.98;39.40;101176.19;6276606;22;20007;-83
2022/05/19 07:38:25;;;;;;;3.60;1.92;;;;;;;20.18;35.96;101172.84;6275810;22;20014;-83
2022/05/19 07:40:54;;;;;;;5.65;2.20;;;;;;;20.33;38.31;101174.50;6249277;22;20031;-83
2022/05/19 07:43:39;;;;;;;5.68;2.15;;;;;;;20.30;37.44;101169.06;6275797;22;20012;-83
2022/05/19 07:46:05;;;;;;;4.63;2.00;;;;;;;20.44;37.01;101171.94;6275773;22;20069;-83
2022/05/19 07:48:31;;;;;;;5.45;2.00;;;;;;;20.56;36.18;101180.63;6275294;22;20000;-82
2022/05/19 07:50:57;;;;;;;2.95;1.80;;;;;;;20.66;35.68;101170.88;6275664;22;20018;-82
2022/05/19 07:53:23;;;;;;;5.50;1.90;;;;;;;20.80;36.11;101168.13;6275263;22;20390;-83
2022/05/19 07:55:49;;;;;;;4.03;1.80;;;;;;;21.04;31.66;101170.13;6275844;22;20008;-83
2022/05/19 07:58:15;;;;;;;3.60;1.70;;;;;;;21.19;30.16;101171.75;6248044;22;20003;-84
2022/05/19 08:00:40;;;;;;;6.53;1.70;;;;;;;21.43;31.10;101168.09;6248110;22;20018;-84
2022/05/19 08:03:06;;;;;;;4.28;1.52;;;;;;;21.35;29.78;101167.72;6275097;22;20012;-84
2022/05/19 08:05:32;;;;;;;7.78;2.00;;;;;;;21.23;29.35;101169.50;6274455;22;20015;-84
2022/05/19 08:07:58;;;;;;;5.25;1.60;;;;;;;21.46;29.06;101175.59;6275595;22;20012;-84
2022/05/19 08:10:26;;;;;;;2.72;1.50;;;;;;;21.60;24.39;101172.00;6275301;22;20011;-84
2022/05/19 08:15:40;;;;;;;3.67;1.45;;;;;;;21.82;26.71;101173.19;6275296;22;20008;-84
2022/05/19 08:18:08;;;;;;;11.20;1.50;;;;;;;21.84;24.42;101183.97;6247615;22;20035;-84
2022/05/19 08:20:35;;;;;;;2.15;1.50;;;;;;;21.66;22.08;101184.19;6247200;22;20440;-85
2022/05/19 08:23:01;;;;;;;3.92;1.60;;;;;;;21.80;22.68;101174.91;6273965;22;20008;-85
2022/05/19 08:25:27;;;;;;;4.55;1.38;;;;;;;21.86;23.43;101175.81;6247064;22;20085;-84
2022/05/19 08:27:54;;;;;;;3.22;1.40;;;;;;;22.07;23.43;101171.81;6274990;22;20016;-84
2022/05/19 08:30:20;;;;;;;2.53;1.63;;;;;;;22.10;23.54;101170.84;6247818;22;20038;-85
2022/05/19 08:32:46;;;;;;;3.30;1.30;;;;;;;22.56;23.68;101173.06;6275448;22;20026;-85
2022/05/19 08:35:11;;;;;;;4.80;1.25;;;;;;;22.50;22.97;101175.03;6274797;22;20003;-85
2022/05/19 08:37:37;;;;;;;3.17;1.17;;;;;;;22.48;22.03;101181.19;6275034;22;20083;-84
2022/05/19 08:40:03;;;;;;;4.50;1.38;;;;;;;22.46;22.28;101171.63;6275267;22;20022;-84
2022/05/19 08:42:33;;;;;;;2.83;1.27;;;;;;;22.22;22.46;101172.56;6247719;22;20418;-84
2022/05/19 08:45:02;;;;;;;2.63;1.30;;;;;;;22.30;22.55;101173.72;6274915;22;20047;-85
2022/05/19 08:47:31;;;;;;;2.33;1.48;;;;;;;22.61;23.11;101175.16;6222771;22;20008;-84
2022/05/19 08:50:03;;;;;;;6.30;1.40;;;;;;;22.80;22.51;101175.72;6248103;22;20430;-84
2022/05/19 08:52:44;;;;;;;2.92;1.40;;;;;;;22.40;22.34;101171.56;6274661;22;20012;-84
2022/05/19 08:55:13;;;;;;;4.75;1.45;;;;;;;22.79;23.44;101174.94;6248023;22;20093;-84
2022/05/19 08:57:38;;;;;;;5.53;1.50;;;;;;;22.82;22.12;101173.94;6248290;22;20012;-85
2022/05/19 09:00:13;;;;;;;2.88;1.20;;;;;;;22.83;21.45;101186.81;6274859;22;20053;-85
2022/05/19 09:02:41;;;;;;;6.20;1.25;;;;;;;22.81;21.77;101172.38;6274657;22;20022;-85
2022/05/19 09:05:32;;;;;;;1.95;1.20;;;;;;;23.01;22.07;101169.53;6274799;22;20027;-84
2022/05/19 09:08:15;;;;;;;5.07;1.25;;;;;;;23.11;22.28;101168.13;6247922;22;20011;-84
2022/05/19 09:10:52;;;;;;;4.78;1.17;;;;;;;22.95;22.74;101171.53;6274794;22;20083;-83
2022/05/19 09:13:24;;;;;;;4.05;1.70;;;;;;;22.83;22.91;101171.91;6274376;22;20008;-82
2022/05/19 09:15:52;;;;;;;3.85;1.55;;;;;;;22.96;22.66;101164.63;6248583;22;20011;-83
2022/05/19 09:18:32;;;;;;;3.13;1.38;;;;;;;23.23;23.21;101169.03;6247975;22;20007;-83
2022/05/19 09:20:57;;;;;;;4.70;1.45;;;;;;;22.98;22.21;101164.88;6274876;22;20012;-83
2022/05/19 09:23:23;;;;;;;2.80;1.30;;;;;;;23.21;22.93;101161.03;6247224;22;20037;-83
2022/05/19 09:26:01;;;;;;;6.57;1.40;;;;;;;22.69;21.71;101159.38;6247575;22;20537;-82
2022/05/19 09:28:27;;;;;;;3.60;1.23;;;;;;;22.86;21.43;101160.38;6247000;22;20103;-82
2022/05/19 09:30:54;;;;;;;4.70;1.50;;;;;;;22.73;22.01;101168.41;6247637;22;20078;-82
2022/05/19 09:33:33;;;;;;;4.72;1.40;;;;;;;22.91;22.08;101145.53;6274422;22;20460;-82
2022/05/19 09:36:00;;;;;;;3.17;1.25;;;;;;;23.36;22.19;101154.50;6274730;22;20083;-83
2022/05/19 09:38:32;;;;;;;4.40;1.50;;;;;;;23.61;20.79;101151.72;6223165;22;20008;-83
2022/05/19 09:41:04;;;;;;;6.38;1.52;;;;;;;23.24;20.47;101148.75;6247586;22;20012;-82
2022/05/19 09:43:33;;;;;;;3.40;1.40;;;;;;;23.20;21.14;101147.41;6274059;22;20018;-83
2022/05/19 09:46:14;;;;;;;3.78;1.42;;;;;;;22.76;22.45;101147.66;6243818;22;20338;-83
2022/05/19 09:49:01;;;;;;;3.55;1.48;;;;;;;23.29;22.34;101135.91;6271919;22;20016;-83
2022/05/19 09:51:39;;;;;;;4.43;1.60;;;;;;;23.71;22.83;101140.97;6246310;22;20019;-83
2022/05/19 09:54:05;;;;;;;1.92;1.38;;;;;;;23.15;22.04;101134.72;6271234;22;20098;-83
2022/05/19 09:56:37;;;;;;;3.58;1.40;;;;;;;23.22;22.31;101139.94;6272425;22;20049;-83
2022/05/19 09:59:13;;;;;;;5.07;1.42;;;;;;;23.52;22.21;101128.44;6243930;22;20100;-83
2022/05/19 10:01:41;;;;;;;4.60;1.77;;;;;;;23.69;22.30;101140.72;6244845;22;20579;-84
2022/05/19 10:04:09;;;;;;;2.65;1.23;;;;;;;23.65;22.14;101126.00;6218759;22;20024;-83
2022/05/19 10:06:35;;;;;;;4.07;1.42;;;;;;;23.16;21.94;101135.50;6245143;22;20039;-83
2022/05/19 10:09:15;;;;;;;2.95;1.63;;;;;;;22.93;22.39;101128.81;6270968;22;20761;-83
2022/05/19 10:12:11;;;;;;;1.92;1.08;;;;;;;23.23;22.59;101123.75;6272234;22;20034;-84
2022/05/19 10:14:38;;;;;;;3.65;1.15;;;;;;;23.32;22.22;101119.97;6268222;22;20019;-83
2022/05/19 10:17:15;;;;;;;2.42;1.33;;;;;;;23.25;21.70;101110.63;6271528;22;20011;-84
2022/05/19 10:19:43;;;;;;;2.80;1.70;;;;;;;23.25;21.57;101121.97;6244555;22;20012;-84
2022/05/19 10:22:37;;;;;;;2.78;1.10;;;;;;;23.37;22.52;101105.88;6244785;22;20055;-83
2022/05/19 10:25:08;;;;;;;;;;;;;;;23.50;22.63;101097.00;6244184;22;20614;-84
2022/05/19 10:31:12;;;;;;;4.65;1.20;;;;;;;23.56;22.71;101097.84;6270291;22;20086;-83
2022/05/19 10:34:00;;;;;;;5.32;1.55;;;;;;;23.95;22.88;101086.81;6245185;22;20016;-84
2022/05/19 10:36:41;;;;;;;3.80;1.30;;;;;;;24.45;23.39;101078.63;6271209;22;20372;-82
2022/05/19 10:39:16;;;;;;;4.57;1.50;;;;;;;24.30;22.24;101069.53;6272497;22;20031;-84
2022/05/19 10:41:42;;;;;;;5.70;1.52;;;;;;;23.97;21.41;101056.69;6271036;22;20522;-84
2022/05/19 10:44:10;;;;;;;4.93;1.65;;;;;;;23.62;22.14;101070.31;6270336;22;20015;-84
2022/05/19 10:46:57;;;;;;;2.03;1.15;;;;;;;23.86;22.35;101065.09;6271268;22;20012;-83
2022/05/19 10:49:27;;;;;;;3.88;2.22;;;;;;;24.03;21.77;101066.00;6220192;22;20038;-86
2022/05/19 10:52:36;;;;;;;2.80;1.00;;;;;;;24.04;21.72;101053.38;6271292;22;20016;-86
2022/05/19 10:55:24;;;;;;;3.35;1.45;;;;;;;23.73;22.01;101047.78;6226538;22;20393;-86
2022/05/19 10:57:59;;;;;;;4.22;1.50;;;;;;;23.68;22.29;101045.66;6244202;22;20349;-83
2022/05/19 11:01:10;;;;;;;3.20;1.38;;;;;;;23.82;22.52;101043.97;6271034;22;20438;-84
2022/05/19 11:03:35;;;;;;;2.92;1.30;;;;;;;23.92;21.42;101031.16;6265004;22;20040;-84
2022/05/19 11:06:38;;;;;;;3.22;1.40;;;;;;;24.26;22.90;101032.91;6270699;22;20539;-85
2022/05/19 11:09:34;;;;;;;4.97;1.40;;;;;;;24.08;21.71;101036.91;6270573;22;20050;-84
2022/05/19 11:12:34;;;;;;;4.97;1.70;;;;;;;23.67;22.70;101021.44;6271180;22;20238;-81
2022/05/19 11:15:13;;;;;;;3.78;1.45;;;;;;;23.55;22.56;101009.28;6270300;22;20008;-80
2022/05/19 11:17:57;;;;;;;4.05;1.40;;;;;;;24.07;23.54;101021.19;6271319;22;20007;-80
2022/05/19 11:21:00;;;;;;;4.22;1.60;;;;;;;23.94;22.50;101012.34;6273556;22;20081;-80
2022/05/19 11:23:47;;;;;;;3.28;1.20;;;;;;;24.20;22.52;101011.47;6222356;22;20472;-81
2022/05/19 11:26:27;;;;;;;4.40;1.42;;;;;;;24.27;22.79;101005.31;6273826;22;20020;-80
2022/05/19 11:29:18;;;;;;;4.40;1.25;;;;;;;24.69;22.47;100996.72;6272432;22;20330;-80
2022/05/19 11:31:49;;;;;;;3.70;1.30;;;;;;;24.97;22.21;101000.41;6180073;22;20590;-83
2022/05/19 11:34:21;;;;;;;3.47;1.38;;;;;;;24.53;22.14;100998.22;6273363;22;20023;-82
2022/05/19 11:36:54;;;;;;;4.32;1.40;;;;;;;24.28;21.94;100989.88;6273896;22;20018;-83
2022/05/19 11:39:21;;;;;;;;;;;;;;;24.04;20.97;100996.69;6222102;22;20038;-82
2022/05/19 11:41:47;;;;;;;2.58;1.20;;;;;;;24.27;22.38;100982.63;6273228;22;20329;-82
2022/05/19 11:44:29;;;;;;;2.15;1.08;;;;;;;24.40;22.39;100982.94;6272771;22;20446;-83
2022/05/19 11:47:07;;;;;;;2.28;1.20;;;;;;;24.62;21.69;100991.53;6220598;22;20012;-82
2022/05/19 11:55:35;;;;;;;2.85;1.30;;;;;;;24.63;22.36;100975.31;6275010;22;20019;-82